sensor_id;sensor_type;location;lat;lon;timestamp;P1;durP1;ratioP1;P2;durP2;ratioP2
5363;SDS011;2705;41.410;2.160;2023-03-03T00:00:47;24.10;;;15.20;;
5363;SDS011;2705;41.410;2.160;2023-03-03T00:03:20;22.47;;;14.53;;
5363;SDS011;2705;41.410;2.160;2023-03-03T00:05:50;21.30;;;15.03;;
5363;SDS011;2705;41.410;2.160;2023-03-03T00:08:20;21.80;;;13.80;;
5363;SDS011;2705;41.410;2.160;2023-03-03T00:10:50;24.80;;;14.80;;
5363;SDS011;2705;41.410;2.160;2023-03-03T00:13:22;20.93;;;14.27;;
5363;SDS011;2705;41.410;2.160;2023-03-03T00:15:53;28.90;;;15.07;;
5363;SDS011;2705;41.410;2.160;2023-03-03T00:18:29;24.07;;;15.47;;
5363;SDS011;2705;41.410;2.160;2023-03-03T00:20:59;21.60;;;14.00;;
5363;SDS011;2705;41.410;2.160;2023-03-03T00:23:29;18.50;;;13.77;;
5363;SDS011;2705;41.410;2.160;2023-03-03T00:25:59;24.33;;;14.93;;
5363;SDS011;2705;41.410;2.160;2023-03-03T00:28:30;24.13;;;15.90;;
5363;SDS011;2705;41.410;2.160;2023-03-03T00:31:00;23.30;;;13.53;;
5363;SDS011;2705;41.410;2.160;2023-03-03T00:33:32;26.77;;;14.87;;
5363;SDS011;2705;41.410;2.160;2023-03-03T00:36:09;21.17;;;15.03;;
5363;SDS011;2705;41.410;2.160;2023-03-03T00:38:48;21.77;;;13.60;;
5363;SDS011;2705;41.410;2.160;2023-03-03T00:41:18;21.07;;;12.70;;
5363;SDS011;2705;41.410;2.160;2023-03-03T00:43:51;21.87;;;13.60;;
5363;SDS011;2705;41.410;2.160;2023-03-03T00:46:21;22.53;;;14.80;;
5363;SDS011;2705;41.410;2.160;2023-03-03T00:48:52;21.20;;;13.53;;
5363;SDS011;2705;41.410;2.160;2023-03-03T00:51:25;19.87;;;13.53;;
5363;SDS011;2705;41.410;2.160;2023-03-03T00:53:54;22.67;;;12.80;;
5363;SDS011;2705;41.410;2.160;2023-03-03T00:56:24;20.77;;;13.87;;
5363;SDS011;2705;41.410;2.160;2023-03-03T00:58:53;22.27;;;13.60;;
5363;SDS011;2705;41.410;2.160;2023-03-03T01:01:24;24.43;;;14.13;;
5363;SDS011;2705;41.410;2.160;2023-03-03T01:03:55;21.47;;;13.80;;
5363;SDS011;2705;41.410;2.160;2023-03-03T01:06:25;23.20;;;13.23;;
5363;SDS011;2705;41.410;2.160;2023-03-03T01:08:54;20.30;;;13.70;;
5363;SDS011;2705;41.410;2.160;2023-03-03T01:11:24;20.53;;;13.77;;
5363;SDS011;2705;41.410;2.160;2023-03-03T01:13:54;19.10;;;12.97;;
5363;SDS011;2705;41.410;2.160;2023-03-03T01:16:25;22.23;;;13.27;;
5363;SDS011;2705;41.410;2.160;2023-03-03T01:18:56;22.63;;;13.30;;
5363;SDS011;2705;41.410;2.160;2023-03-03T01:21:25;20.00;;;13.73;;
5363;SDS011;2705;41.410;2.160;2023-03-03T01:23:55;20.80;;;13.37;;
5363;SDS011;2705;41.410;2.160;2023-03-03T01:26:24;27.03;;;12.73;;
5363;SDS011;2705;41.410;2.160;2023-03-03T01:28:54;26.20;;;14.13;;
5363;SDS011;2705;41.410;2.160;2023-03-03T01:31:23;23.40;;;12.70;;
5363;SDS011;2705;41.410;2.160;2023-03-03T01:33:53;20.30;;;13.70;;
5363;SDS011;2705;41.410;2.160;2023-03-03T01:36:24;23.10;;;13.57;;
5363;SDS011;2705;41.410;2.160;2023-03-03T01:38:53;19.93;;;12.83;;
5363;SDS011;2705;41.410;2.160;2023-03-03T01:41:24;17.73;;;12.33;;
5363;SDS011;2705;41.410;2.160;2023-03-03T01:43:55;17.60;;;12.03;;
5363;SDS011;2705;41.410;2.160;2023-03-03T01:46:27;21.37;;;12.00;;
5363;SDS011;2705;41.410;2.160;2023-03-03T01:48:59;18.13;;;12.60;;
5363;SDS011;2705;41.410;2.160;2023-03-03T01:51:31;26.13;;;13.40;;
5363;SDS011;2705;41.410;2.160;2023-03-03T01:54:03;17.27;;;12.33;;
5363;SDS011;2705;41.410;2.160;2023-03-03T01:56:33;17.17;;;11.43;;
5363;SDS011;2705;41.410;2.160;2023-03-03T01:59:03;17.93;;;12.50;;
5363;SDS011;2705;41.410;2.160;2023-03-03T02:04:28;18.53;;;13.20;;
5363;SDS011;2705;41.410;2.160;2023-03-03T02:06:59;31.97;;;12.80;;
5363;SDS011;2705;41.410;2.160;2023-03-03T02:09:31;18.27;;;12.00;;
5363;SDS011;2705;41.410;2.160;2023-03-03T02:12:04;16.17;;;10.50;;
5363;SDS011;2705;41.410;2.160;2023-03-03T02:14:35;13.70;;;9.27;;
5363;SDS011;2705;41.410;2.160;2023-03-03T02:17:05;18.63;;;11.70;;
5363;SDS011;2705;41.410;2.160;2023-03-03T02:19:40;17.70;;;12.10;;
5363;SDS011;2705;41.410;2.160;2023-03-03T02:22:13;19.13;;;11.33;;
5363;SDS011;2705;41.410;2.160;2023-03-03T02:24:44;21.40;;;12.10;;
5363;SDS011;2705;41.410;2.160;2023-03-03T02:27:21;20.23;;;12.47;;
5363;SDS011;2705;41.410;2.160;2023-03-03T02:29:50;17.27;;;11.97;;
5363;SDS011;2705;41.410;2.160;2023-03-03T02:32:20;19.63;;;12.00;;
5363;SDS011;2705;41.410;2.160;2023-03-03T02:34:49;15.57;;;11.53;;
5363;SDS011;2705;41.410;2.160;2023-03-03T02:37:19;21.70;;;11.50;;
5363;SDS011;2705;41.410;2.160;2023-03-03T02:39:48;23.07;;;12.53;;
5363;SDS011;2705;41.410;2.160;2023-03-03T02:42:18;17.90;;;12.43;;
5363;SDS011;2705;41.410;2.160;2023-03-03T02:44:54;19.83;;;12.77;;
5363;SDS011;2705;41.410;2.160;2023-03-03T02:47:24;16.13;;;11.83;;
5363;SDS011;2705;41.410;2.160;2023-03-03T02:49:53;17.73;;;12.73;;
5363;SDS011;2705;41.410;2.160;2023-03-03T02:52:22;18.80;;;11.93;;
5363;SDS011;2705;41.410;2.160;2023-03-03T02:54:52;20.60;;;13.10;;
5363;SDS011;2705;41.410;2.160;2023-03-03T02:57:21;20.13;;;12.97;;
5363;SDS011;2705;41.410;2.160;2023-03-03T02:59:52;20.20;;;12.10;;
5363;SDS011;2705;41.410;2.160;2023-03-03T03:02:23;26.63;;;11.33;;
5363;SDS011;2705;41.410;2.160;2023-03-03T03:04:54;18.73;;;11.63;;
5363;SDS011;2705;41.410;2.160;2023-03-03T03:07:24;20.63;;;12.60;;
5363;SDS011;2705;41.410;2.160;2023-03-03T03:09:54;21.07;;;12.87;;
5363;SDS011;2705;41.410;2.160;2023-03-03T03:12:26;17.00;;;11.43;;
5363;SDS011;2705;41.410;2.160;2023-03-03T03:14:56;25.00;;;13.27;;
5363;SDS011;2705;41.410;2.160;2023-03-03T03:17:27;18.07;;;11.30;;
5363;SDS011;2705;41.410;2.160;2023-03-03T03:19:59;19.10;;;12.90;;
5363;SDS011;2705;41.410;2.160;2023-03-03T03:22:29;17.33;;;11.80;;
5363;SDS011;2705;41.410;2.160;2023-03-03T03:24:58;21.53;;;13.50;;
5363;SDS011;2705;41.410;2.160;2023-03-03T03:27:28;18.93;;;12.70;;
5363;SDS011;2705;41.410;2.160;2023-03-03T03:29:58;17.97;;;11.97;;
5363;SDS011;2705;41.410;2.160;2023-03-03T03:32:30;20.03;;;12.30;;
5363;SDS011;2705;41.410;2.160;2023-03-03T03:34:59;17.07;;;9.80;;
5363;SDS011;2705;41.410;2.160;2023-03-03T03:37:29;18.87;;;13.47;;
5363;SDS011;2705;41.410;2.160;2023-03-03T03:39:58;22.23;;;12.77;;
5363;SDS011;2705;41.410;2.160;2023-03-03T03:42:28;21.77;;;12.80;;
5363;SDS011;2705;41.410;2.160;2023-03-03T03:44:58;17.10;;;12.43;;
5363;SDS011;2705;41.410;2.160;2023-03-03T03:47:28;16.37;;;11.90;;
5363;SDS011;2705;41.410;2.160;2023-03-03T03:49:58;22.97;;;13.63;;
5363;SDS011;2705;41.410;2.160;2023-03-03T03:52:28;20.20;;;13.30;;
5363;SDS011;2705;41.410;2.160;2023-03-03T03:54:57;17.03;;;12.47;;
5363;SDS011;2705;41.410;2.160;2023-03-03T03:57:27;17.70;;;12.60;;
5363;SDS011;2705;41.410;2.160;2023-03-03T03:59:56;20.67;;;13.00;;
5363;SDS011;2705;41.410;2.160;2023-03-03T04:02:26;19.37;;;13.23;;
5363;SDS011;2705;41.410;2.160;2023-03-03T04:04:56;18.80;;;13.17;;
5363;SDS011;2705;41.410;2.160;2023-03-03T04:07:27;20.00;;;12.77;;
5363;SDS011;2705;41.410;2.160;2023-03-03T04:09:56;20.03;;;13.03;;
5363;SDS011;2705;41.410;2.160;2023-03-03T04:12:27;19.67;;;13.33;;
5363;SDS011;2705;41.410;2.160;2023-03-03T04:14:56;22.93;;;12.03;;
5363;SDS011;2705;41.410;2.160;2023-03-03T04:17:26;17.67;;;12.27;;
5363;SDS011;2705;41.410;2.160;2023-03-03T04:19:56;20.17;;;13.20;;
5363;SDS011;2705;41.410;2.160;2023-03-03T04:22:28;23.33;;;12.93;;
5363;SDS011;2705;41.410;2.160;2023-03-03T04:25:00;20.30;;;12.50;;
5363;SDS011;2705;41.410;2.160;2023-03-03T04:27:36;18.03;;;12.67;;
5363;SDS011;2705;41.410;2.160;2023-03-03T04:30:06;20.37;;;12.70;;
5363;SDS011;2705;41.410;2.160;2023-03-03T04:32:37;16.80;;;10.90;;
5363;SDS011;2705;41.410;2.160;2023-03-03T04:35:09;18.40;;;13.00;;
5363;SDS011;2705;41.410;2.160;2023-03-03T04:37:43;12.07;;;9.00;;
5363;SDS011;2705;41.410;2.160;2023-03-03T04:40:15;18.53;;;12.67;;
5363;SDS011;2705;41.410;2.160;2023-03-03T04:42:46;18.93;;;13.07;;
5363;SDS011;2705;41.410;2.160;2023-03-03T04:45:16;16.10;;;12.23;;
5363;SDS011;2705;41.410;2.160;2023-03-03T04:47:46;19.47;;;13.03;;
5363;SDS011;2705;41.410;2.160;2023-03-03T04:50:15;18.83;;;12.30;;
5363;SDS011;2705;41.410;2.160;2023-03-03T04:52:46;21.40;;;13.70;;
5363;SDS011;2705;41.410;2.160;2023-03-03T04:55:16;17.90;;;13.40;;
5363;SDS011;2705;41.410;2.160;2023-03-03T04:57:46;24.17;;;13.53;;
5363;SDS011;2705;41.410;2.160;2023-03-03T05:00:17;17.83;;;12.10;;
5363;SDS011;2705;41.410;2.160;2023-03-03T05:02:46;19.07;;;13.13;;
5363;SDS011;2705;41.410;2.160;2023-03-03T05:05:16;20.33;;;13.50;;
5363;SDS011;2705;41.410;2.160;2023-03-03T05:07:47;18.33;;;14.40;;
5363;SDS011;2705;41.410;2.160;2023-03-03T05:10:17;18.70;;;12.73;;
5363;SDS011;2705;41.410;2.160;2023-03-03T05:12:47;20.50;;;12.93;;
5363;SDS011;2705;41.410;2.160;2023-03-03T05:15:16;20.60;;;13.60;;
5363;SDS011;2705;41.410;2.160;2023-03-03T05:17:46;18.70;;;13.00;;
5363;SDS011;2705;41.410;2.160;2023-03-03T05:20:16;22.30;;;14.17;;
5363;SDS011;2705;41.410;2.160;2023-03-03T05:22:45;16.13;;;12.53;;
5363;SDS011;2705;41.410;2.160;2023-03-03T05:25:16;18.70;;;12.50;;
5363;SDS011;2705;41.410;2.160;2023-03-03T05:27:45;18.30;;;13.17;;
5363;SDS011;2705;41.410;2.160;2023-03-03T05:30:15;20.50;;;13.70;;
5363;SDS011;2705;41.410;2.160;2023-03-03T05:32:44;19.60;;;13.80;;
5363;SDS011;2705;41.410;2.160;2023-03-03T05:35:14;18.70;;;12.80;;
5363;SDS011;2705;41.410;2.160;2023-03-03T05:37:43;17.77;;;12.33;;
5363;SDS011;2705;41.410;2.160;2023-03-03T05:40:13;24.83;;;13.43;;
5363;SDS011;2705;41.410;2.160;2023-03-03T05:42:44;17.70;;;12.93;;
5363;SDS011;2705;41.410;2.160;2023-03-03T05:45:14;19.27;;;13.33;;
5363;SDS011;2705;41.410;2.160;2023-03-03T05:47:46;23.17;;;14.23;;
5363;SDS011;2705;41.410;2.160;2023-03-03T05:50:16;20.77;;;13.67;;
5363;SDS011;2705;41.410;2.160;2023-03-03T05:52:46;21.30;;;13.20;;
5363;SDS011;2705;41.410;2.160;2023-03-03T05:55:15;21.37;;;13.00;;
5363;SDS011;2705;41.410;2.160;2023-03-03T05:57:47;18.83;;;13.13;;
5363;SDS011;2705;41.410;2.160;2023-03-03T06:00:16;21.83;;;14.50;;
5363;SDS011;2705;41.410;2.160;2023-03-03T06:02:46;16.90;;;12.80;;
5363;SDS011;2705;41.410;2.160;2023-03-03T06:05:15;21.33;;;13.97;;
5363;SDS011;2705;41.410;2.160;2023-03-03T06:07:45;21.07;;;13.83;;
5363;SDS011;2705;41.410;2.160;2023-03-03T06:10:14;21.30;;;12.70;;
5363;SDS011;2705;41.410;2.160;2023-03-03T06:12:49;21.13;;;13.93;;
5363;SDS011;2705;41.410;2.160;2023-03-03T06:15:18;27.27;;;15.10;;
5363;SDS011;2705;41.410;2.160;2023-03-03T06:17:48;24.90;;;13.83;;
5363;SDS011;2705;41.410;2.160;2023-03-03T06:20:18;19.73;;;14.53;;
5363;SDS011;2705;41.410;2.160;2023-03-03T06:22:47;26.27;;;15.57;;
5363;SDS011;2705;41.410;2.160;2023-03-03T06:25:16;16.83;;;12.20;;
5363;SDS011;2705;41.410;2.160;2023-03-03T06:27:46;22.30;;;15.70;;
5363;SDS011;2705;41.410;2.160;2023-03-03T06:30:17;22.20;;;14.30;;
5363;SDS011;2705;41.410;2.160;2023-03-03T06:32:46;18.90;;;14.23;;
5363;SDS011;2705;41.410;2.160;2023-03-03T06:35:15;23.57;;;14.97;;
5363;SDS011;2705;41.410;2.160;2023-03-03T06:37:45;19.73;;;12.07;;
5363;SDS011;2705;41.410;2.160;2023-03-03T06:40:16;23.77;;;14.67;;
5363;SDS011;2705;41.410;2.160;2023-03-03T06:42:46;25.70;;;15.07;;
5363;SDS011;2705;41.410;2.160;2023-03-03T06:45:17;26.10;;;14.30;;
5363;SDS011;2705;41.410;2.160;2023-03-03T06:47:46;27.87;;;15.77;;
5363;SDS011;2705;41.410;2.160;2023-03-03T06:50:16;23.53;;;15.20;;
5363;SDS011;2705;41.410;2.160;2023-03-03T06:52:46;24.53;;;14.60;;
5363;SDS011;2705;41.410;2.160;2023-03-03T06:55:17;22.47;;;14.70;;
5363;SDS011;2705;41.410;2.160;2023-03-03T06:57:49;27.80;;;15.90;;
5363;SDS011;2705;41.410;2.160;2023-03-03T07:00:24;25.73;;;15.73;;
5363;SDS011;2705;41.410;2.160;2023-03-03T07:02:57;26.97;;;15.60;;
5363;SDS011;2705;41.410;2.160;2023-03-03T07:05:27;25.70;;;14.43;;
5363;SDS011;2705;41.410;2.160;2023-03-03T07:07:57;20.20;;;13.23;;
5363;SDS011;2705;41.410;2.160;2023-03-03T07:10:27;30.87;;;11.60;;
5363;SDS011;2705;41.410;2.160;2023-03-03T07:13:00;24.33;;;15.43;;
5363;SDS011;2705;41.410;2.160;2023-03-03T07:15:33;24.43;;;15.10;;
5363;SDS011;2705;41.410;2.160;2023-03-03T07:18:02;26.10;;;15.47;;
5363;SDS011;2705;41.410;2.160;2023-03-03T07:20:40;23.23;;;15.00;;
5363;SDS011;2705;41.410;2.160;2023-03-03T07:23:12;26.87;;;16.40;;
5363;SDS011;2705;41.410;2.160;2023-03-03T07:25:44;26.27;;;16.30;;
5363;SDS011;2705;41.410;2.160;2023-03-03T07:28:17;23.10;;;15.33;;
5363;SDS011;2705;41.410;2.160;2023-03-03T07:30:50;26.60;;;15.07;;
5363;SDS011;2705;41.410;2.160;2023-03-03T07:33:22;21.77;;;15.07;;
5363;SDS011;2705;41.410;2.160;2023-03-03T07:35:53;27.73;;;15.60;;
5363;SDS011;2705;41.410;2.160;2023-03-03T07:38:24;27.20;;;16.20;;
5363;SDS011;2705;41.410;2.160;2023-03-03T07:40:54;21.23;;;14.60;;
5363;SDS011;2705;41.410;2.160;2023-03-03T07:46:21;25.50;;;16.43;;
5363;SDS011;2705;41.410;2.160;2023-03-03T07:48:51;26.20;;;16.40;;
5363;SDS011;2705;41.410;2.160;2023-03-03T07:51:22;26.03;;;14.70;;
5363;SDS011;2705;41.410;2.160;2023-03-03T07:53:54;25.00;;;15.43;;
5363;SDS011;2705;41.410;2.160;2023-03-03T07:56:29;23.70;;;15.43;;
5363;SDS011;2705;41.410;2.160;2023-03-03T07:58:59;29.70;;;15.37;;
5363;SDS011;2705;41.410;2.160;2023-03-03T08:01:36;23.43;;;14.70;;
5363;SDS011;2705;41.410;2.160;2023-03-03T08:04:10;29.33;;;16.73;;
5363;SDS011;2705;41.410;2.160;2023-03-03T08:06:43;25.97;;;15.10;;
5363;SDS011;2705;41.410;2.160;2023-03-03T08:12:07;37.17;;;20.77;;
5363;SDS011;2705;41.410;2.160;2023-03-03T08:14:39;22.73;;;16.27;;
5363;SDS011;2705;41.410;2.160;2023-03-03T08:17:13;25.53;;;15.63;;
5363;SDS011;2705;41.410;2.160;2023-03-03T08:19:43;18.55;;;14.40;;
5363;SDS011;2705;41.410;2.160;2023-03-03T08:22:13;20.70;;;12.30;;
5363;SDS011;2705;41.410;2.160;2023-03-03T08:24:43;26.87;;;14.57;;
5363;SDS011;2705;41.410;2.160;2023-03-03T08:27:12;21.67;;;14.70;;
5363;SDS011;2705;41.410;2.160;2023-03-03T08:29:42;19.57;;;15.00;;
5363;SDS011;2705;41.410;2.160;2023-03-03T08:32:15;27.53;;;14.70;;
5363;SDS011;2705;41.410;2.160;2023-03-03T08:34:45;22.07;;;14.77;;
5363;SDS011;2705;41.410;2.160;2023-03-03T08:37:14;25.70;;;16.30;;
5363;SDS011;2705;41.410;2.160;2023-03-03T08:39:43;24.73;;;15.60;;
5363;SDS011;2705;41.410;2.160;2023-03-03T08:42:13;26.33;;;15.60;;
5363;SDS011;2705;41.410;2.160;2023-03-03T08:44:42;28.90;;;15.70;;
5363;SDS011;2705;41.410;2.160;2023-03-03T08:47:12;23.20;;;14.00;;
5363;SDS011;2705;41.410;2.160;2023-03-03T08:49:43;23.70;;;16.00;;
5363;SDS011;2705;41.410;2.160;2023-03-03T08:52:12;22.50;;;14.57;;
5363;SDS011;2705;41.410;2.160;2023-03-03T08:54:41;27.17;;;15.60;;
5363;SDS011;2705;41.410;2.160;2023-03-03T08:57:11;20.63;;;14.90;;
5363;SDS011;2705;41.410;2.160;2023-03-03T08:59:40;23.87;;;15.00;;
5363;SDS011;2705;41.410;2.160;2023-03-03T09:02:09;28.17;;;14.97;;
5363;SDS011;2705;41.410;2.160;2023-03-03T09:04:39;21.53;;;14.17;;
5363;SDS011;2705;41.410;2.160;2023-03-03T09:07:09;22.83;;;15.73;;
5363;SDS011;2705;41.410;2.160;2023-03-03T09:09:39;24.43;;;15.07;;
5363;SDS011;2705;41.410;2.160;2023-03-03T09:12:12;27.73;;;16.00;;
5363;SDS011;2705;41.410;2.160;2023-03-03T09:14:43;23.57;;;15.20;;
5363;SDS011;2705;41.410;2.160;2023-03-03T09:17:22;21.87;;;16.00;;
5363;SDS011;2705;41.410;2.160;2023-03-03T09:19:54;25.03;;;15.97;;
5363;SDS011;2705;41.410;2.160;2023-03-03T09:22:25;29.13;;;15.97;;
5363;SDS011;2705;41.410;2.160;2023-03-03T09:24:56;18.50;;;14.17;;
5363;SDS011;2705;41.410;2.160;2023-03-03T09:27:28;23.77;;;15.27;;
5363;SDS011;2705;41.410;2.160;2023-03-03T09:30:00;24.33;;;15.00;;
5363;SDS011;2705;41.410;2.160;2023-03-03T09:32:30;24.40;;;15.03;;
5363;SDS011;2705;41.410;2.160;2023-03-03T09:37:47;25.30;;;15.77;;
5363;SDS011;2705;41.410;2.160;2023-03-03T09:40:28;20.80;;;14.60;;
5363;SDS011;2705;41.410;2.160;2023-03-03T09:43:03;26.83;;;14.63;;
5363;SDS011;2705;41.410;2.160;2023-03-03T09:48:25;22.47;;;15.40;;
5363;SDS011;2705;41.410;2.160;2023-03-03T09:51:00;21.90;;;14.80;;
5363;SDS011;2705;41.410;2.160;2023-03-03T09:53:39;21.70;;;14.20;;
5363;SDS011;2705;41.410;2.160;2023-03-03T09:56:12;25.90;;;16.60;;
5363;SDS011;2705;41.410;2.160;2023-03-03T09:58:50;30.80;;;16.07;;
5363;SDS011;2705;41.410;2.160;2023-03-03T10:01:32;21.80;;;15.60;;
5363;SDS011;2705;41.410;2.160;2023-03-03T10:04:15;23.93;;;14.30;;
5363;SDS011;2705;41.410;2.160;2023-03-03T10:06:48;20.60;;;15.10;;
5363;SDS011;2705;41.410;2.160;2023-03-03T10:09:36;27.23;;;16.43;;
5363;SDS011;2705;41.410;2.160;2023-03-03T10:12:09;20.73;;;15.50;;
5363;SDS011;2705;41.410;2.160;2023-03-03T10:14:50;22.47;;;14.63;;
5363;SDS011;2705;41.410;2.160;2023-03-03T10:17:29;21.20;;;15.30;;
5363;SDS011;2705;41.410;2.160;2023-03-03T10:20:04;22.67;;;15.30;;
5363;SDS011;2705;41.410;2.160;2023-03-03T10:22:37;24.37;;;15.37;;
5363;SDS011;2705;41.410;2.160;2023-03-03T10:25:14;32.40;;;16.87;;
5363;SDS011;2705;41.410;2.160;2023-03-03T10:28:01;27.80;;;17.43;;
5363;SDS011;2705;41.410;2.160;2023-03-03T10:30:38;30.60;;;16.60;;
5363;SDS011;2705;41.410;2.160;2023-03-03T10:33:31;21.83;;;15.27;;
5363;SDS011;2705;41.410;2.160;2023-03-03T10:36:16;27.70;;;17.30;;
5363;SDS011;2705;41.410;2.160;2023-03-03T10:38:51;29.23;;;17.77;;
5363;SDS011;2705;41.410;2.160;2023-03-03T10:41:33;32.17;;;17.33;;
5363;SDS011;2705;41.410;2.160;2023-03-03T10:44:14;24.77;;;16.77;;
5363;SDS011;2705;41.410;2.160;2023-03-03T10:47:00;25.53;;;18.17;;
5363;SDS011;2705;41.410;2.160;2023-03-03T10:49:42;26.73;;;17.77;;
5363;SDS011;2705;41.410;2.160;2023-03-03T10:52:20;27.30;;;17.70;;
5363;SDS011;2705;41.410;2.160;2023-03-03T10:54:54;30.63;;;16.67;;
5363;SDS011;2705;41.410;2.160;2023-03-03T10:57:31;27.70;;;17.70;;
5363;SDS011;2705;41.410;2.160;2023-03-03T11:02:55;29.53;;;18.83;;
5363;SDS011;2705;41.410;2.160;2023-03-03T11:05:28;35.80;;;18.53;;
5363;SDS011;2705;41.410;2.160;2023-03-03T11:08:02;34.40;;;18.63;;
5363;SDS011;2705;41.410;2.160;2023-03-03T11:10:37;32.93;;;19.50;;
5363;SDS011;2705;41.410;2.160;2023-03-03T11:13:11;36.07;;;20.00;;
5363;SDS011;2705;41.410;2.160;2023-03-03T11:15:45;33.63;;;20.23;;
5363;SDS011;2705;41.410;2.160;2023-03-03T11:18:22;33.27;;;20.53;;
5363;SDS011;2705;41.410;2.160;2023-03-03T11:20:54;30.23;;;18.90;;
5363;SDS011;2705;41.410;2.160;2023-03-03T11:23:34;27.77;;;17.73;;
5363;SDS011;2705;41.410;2.160;2023-03-03T11:26:08;33.80;;;20.10;;
5363;SDS011;2705;41.410;2.160;2023-03-03T11:28:45;29.90;;;18.97;;
5363;SDS011;2705;41.410;2.160;2023-03-03T11:31:17;38.53;;;20.50;;
5363;SDS011;2705;41.410;2.160;2023-03-03T11:33:52;31.67;;;19.07;;
5363;SDS011;2705;41.410;2.160;2023-03-03T11:36:26;36.20;;;20.53;;
5363;SDS011;2705;41.410;2.160;2023-03-03T11:38:57;33.13;;;20.10;;
5363;SDS011;2705;41.410;2.160;2023-03-03T11:41:30;31.80;;;19.13;;
5363;SDS011;2705;41.410;2.160;2023-03-03T11:44:08;32.33;;;20.60;;
5363;SDS011;2705;41.410;2.160;2023-03-03T11:46:39;37.27;;;19.70;;
5363;SDS011;2705;41.410;2.160;2023-03-03T11:49:12;36.53;;;21.70;;
5363;SDS011;2705;41.410;2.160;2023-03-03T11:51:45;31.97;;;20.77;;
5363;SDS011;2705;41.410;2.160;2023-03-03T11:54:17;33.93;;;21.43;;
5363;SDS011;2705;41.410;2.160;2023-03-03T11:56:48;36.47;;;21.23;;
5363;SDS011;2705;41.410;2.160;2023-03-03T11:59:33;37.50;;;21.90;;
5363;SDS011;2705;41.410;2.160;2023-03-03T12:02:08;35.77;;;21.07;;
5363;SDS011;2705;41.410;2.160;2023-03-03T12:04:39;32.40;;;20.23;;
5363;SDS011;2705;41.410;2.160;2023-03-03T12:07:14;30.30;;;20.23;;
5363;SDS011;2705;41.410;2.160;2023-03-03T12:09:48;38.90;;;20.77;;
5363;SDS011;2705;41.410;2.160;2023-03-03T12:12:22;32.70;;;20.67;;
5363;SDS011;2705;41.410;2.160;2023-03-03T12:15:00;40.47;;;23.27;;
5363;SDS011;2705;41.410;2.160;2023-03-03T12:17:43;42.00;;;21.33;;
5363;SDS011;2705;41.410;2.160;2023-03-03T12:20:17;41.23;;;23.40;;
5363;SDS011;2705;41.410;2.160;2023-03-03T12:22:52;43.47;;;22.10;;
5363;SDS011;2705;41.410;2.160;2023-03-03T12:25:34;47.90;;;24.13;;
5363;SDS011;2705;41.410;2.160;2023-03-03T12:28:05;35.80;;;21.10;;
5363;SDS011;2705;41.410;2.160;2023-03-03T12:30:41;30.77;;;20.20;;
5363;SDS011;2705;41.410;2.160;2023-03-03T12:33:18;35.30;;;22.23;;
5363;SDS011;2705;41.410;2.160;2023-03-03T12:35:50;38.03;;;20.93;;
5363;SDS011;2705;41.410;2.160;2023-03-03T12:38:25;31.17;;;20.40;;
5363;SDS011;2705;41.410;2.160;2023-03-03T12:40:59;27.93;;;19.53;;
5363;SDS011;2705;41.410;2.160;2023-03-03T12:43:35;31.20;;;19.00;;
5363;SDS011;2705;41.410;2.160;2023-03-03T12:46:12;33.17;;;21.70;;
5363;SDS011;2705;41.410;2.160;2023-03-03T12:48:44;31.67;;;20.20;;
5363;SDS011;2705;41.410;2.160;2023-03-03T12:51:16;38.67;;;20.20;;
5363;SDS011;2705;41.410;2.160;2023-03-03T12:53:51;32.53;;;20.17;;
5363;SDS011;2705;41.410;2.160;2023-03-03T12:56:25;36.77;;;21.97;;
5363;SDS011;2705;41.410;2.160;2023-03-03T12:58:59;34.43;;;21.20;;
5363;SDS011;2705;41.410;2.160;2023-03-03T13:01:36;38.00;;;20.47;;
5363;SDS011;2705;41.410;2.160;2023-03-03T13:04:10;36.87;;;20.87;;
5363;SDS011;2705;41.410;2.160;2023-03-03T13:06:42;38.73;;;23.50;;
5363;SDS011;2705;41.410;2.160;2023-03-03T13:09:17;29.70;;;18.90;;
5363;SDS011;2705;41.410;2.160;2023-03-03T13:11:54;34.83;;;20.80;;
5363;SDS011;2705;41.410;2.160;2023-03-03T13:14:30;36.47;;;21.20;;
5363;SDS011;2705;41.410;2.160;2023-03-03T13:17:05;34.83;;;22.37;;
5363;SDS011;2705;41.410;2.160;2023-03-03T13:19:38;31.83;;;21.67;;
5363;SDS011;2705;41.410;2.160;2023-03-03T13:22:10;33.67;;;21.10;;
5363;SDS011;2705;41.410;2.160;2023-03-03T13:24:44;39.47;;;21.53;;
5363;SDS011;2705;41.410;2.160;2023-03-03T13:27:18;42.67;;;21.77;;
5363;SDS011;2705;41.410;2.160;2023-03-03T13:29:53;37.90;;;21.43;;
5363;SDS011;2705;41.410;2.160;2023-03-03T13:32:28;37.93;;;21.50;;
5363;SDS011;2705;41.410;2.160;2023-03-03T13:35:01;33.57;;;20.03;;
5363;SDS011;2705;41.410;2.160;2023-03-03T13:37:32;36.63;;;21.17;;
5363;SDS011;2705;41.410;2.160;2023-03-03T13:40:04;37.40;;;22.30;;
5363;SDS011;2705;41.410;2.160;2023-03-03T13:42:36;36.83;;;21.30;;
5363;SDS011;2705;41.410;2.160;2023-03-03T13:45:12;32.83;;;18.80;;
5363;SDS011;2705;41.410;2.160;2023-03-03T13:47:47;33.50;;;19.80;;
5363;SDS011;2705;41.410;2.160;2023-03-03T13:50:20;31.30;;;20.90;;
5363;SDS011;2705;41.410;2.160;2023-03-03T13:52:54;43.73;;;22.23;;
5363;SDS011;2705;41.410;2.160;2023-03-03T13:55:28;33.73;;;21.23;;
5363;SDS011;2705;41.410;2.160;2023-03-03T13:57:59;34.70;;;22.50;;
5363;SDS011;2705;41.410;2.160;2023-03-03T14:00:31;42.37;;;20.23;;
5363;SDS011;2705;41.410;2.160;2023-03-03T14:03:10;34.97;;;20.87;;
5363;SDS011;2705;41.410;2.160;2023-03-03T14:05:44;33.87;;;19.33;;
5363;SDS011;2705;41.410;2.160;2023-03-03T14:08:16;34.73;;;21.57;;
5363;SDS011;2705;41.410;2.160;2023-03-03T14:10:50;38.30;;;19.77;;
5363;SDS011;2705;41.410;2.160;2023-03-03T14:13:23;32.30;;;20.33;;
5363;SDS011;2705;41.410;2.160;2023-03-03T14:15:57;33.20;;;20.50;;
5363;SDS011;2705;41.410;2.160;2023-03-03T14:18:32;38.73;;;22.70;;
5363;SDS011;2705;41.410;2.160;2023-03-03T14:21:03;34.50;;;21.23;;
5363;SDS011;2705;41.410;2.160;2023-03-03T14:23:38;37.40;;;22.10;;
5363;SDS011;2705;41.410;2.160;2023-03-03T14:26:11;41.53;;;21.87;;
5363;SDS011;2705;41.410;2.160;2023-03-03T14:28:42;35.50;;;20.10;;
5363;SDS011;2705;41.410;2.160;2023-03-03T14:31:16;34.67;;;21.40;;
5363;SDS011;2705;41.410;2.160;2023-03-03T14:33:56;33.90;;;21.17;;
5363;SDS011;2705;41.410;2.160;2023-03-03T14:36:27;40.90;;;21.90;;
5363;SDS011;2705;41.410;2.160;2023-03-03T14:38:56;41.37;;;21.17;;
5363;SDS011;2705;41.410;2.160;2023-03-03T14:41:35;29.57;;;19.70;;
5363;SDS011;2705;41.410;2.160;2023-03-03T14:47:00;37.27;;;20.33;;
5363;SDS011;2705;41.410;2.160;2023-03-03T14:49:32;35.97;;;20.90;;
5363;SDS011;2705;41.410;2.160;2023-03-03T14:52:04;34.60;;;20.07;;
5363;SDS011;2705;41.410;2.160;2023-03-03T14:54:40;31.77;;;20.83;;
5363;SDS011;2705;41.410;2.160;2023-03-03T14:57:14;30.37;;;19.33;;
5363;SDS011;2705;41.410;2.160;2023-03-03T14:59:56;27.17;;;18.23;;
5363;SDS011;2705;41.410;2.160;2023-03-03T15:02:27;32.60;;;19.27;;
5363;SDS011;2705;41.410;2.160;2023-03-03T15:07:43;26.50;;;18.17;;
5363;SDS011;2705;41.410;2.160;2023-03-03T15:10:14;26.97;;;17.10;;
5363;SDS011;2705;41.410;2.160;2023-03-03T15:12:54;31.83;;;18.00;;
5363;SDS011;2705;41.410;2.160;2023-03-03T15:15:23;33.90;;;18.53;;
5363;SDS011;2705;41.410;2.160;2023-03-03T15:17:57;26.47;;;17.83;;
5363;SDS011;2705;41.410;2.160;2023-03-03T15:20:38;30.80;;;19.70;;
5363;SDS011;2705;41.410;2.160;2023-03-03T15:23:23;36.20;;;21.20;;
5363;SDS011;2705;41.410;2.160;2023-03-03T15:26:00;27.20;;;18.00;;
5363;SDS011;2705;41.410;2.160;2023-03-03T15:28:32;29.33;;;19.70;;
5363;SDS011;2705;41.410;2.160;2023-03-03T15:31:06;33.07;;;21.70;;
5363;SDS011;2705;41.410;2.160;2023-03-03T15:33:40;26.73;;;17.90;;
5363;SDS011;2705;41.410;2.160;2023-03-03T15:36:14;25.33;;;18.00;;
5363;SDS011;2705;41.410;2.160;2023-03-03T15:38:54;29.57;;;18.93;;
5363;SDS011;2705;41.410;2.160;2023-03-03T15:41:25;33.20;;;19.77;;